sensor_id;sensor_type;location;lat;lon;timestamp;P1;durP1;ratioP1;P2;durP2;ratioP2
44985;SDS011;30721;49.380;7.736;2023-06-14T00:00:40;4.95;;;4.55;;
44985;SDS011;30721;49.380;7.736;2023-06-14T00:03:09;5.40;;;4.90;;
44985;SDS011;30721;49.380;7.736;2023-06-14T00:05:37;4.68;;;4.28;;
44985;SDS011;30721;49.380;7.736;2023-06-14T00:08:08;4.75;;;4.10;;
44985;SDS011;30721;49.380;7.736;2023-06-14T00:10:35;5.75;;;4.72;;
44985;SDS011;30721;49.380;7.736;2023-06-14T00:13:04;5.03;;;4.53;;
44985;SDS011;30721;49.380;7.736;2023-06-14T00:15:33;4.97;;;4.47;;
44985;SDS011;30721;49.380;7.736;2023-06-14T00:17:58;5.30;;;4.70;;
44985;SDS011;30721;49.380;7.736;2023-06-14T00:20:28;5.07;;;4.68;;
44985;SDS011;30721;49.380;7.736;2023-06-14T00:22:54;4.93;;;4.50;;
44985;SDS011;30721;49.380;7.736;2023-06-14T00:25:22;4.80;;;4.40;;
44985;SDS011;30721;49.380;7.736;2023-06-14T00:27:48;4.63;;;4.22;;
44985;SDS011;30721;49.380;7.736;2023-06-14T00:30:14;5.65;;;4.40;;
44985;SDS011;30721;49.380;7.736;2023-06-14T00:32:39;5.45;;;4.65;;
44985;SDS011;30721;49.380;7.736;2023-06-14T00:35:05;5.32;;;4.47;;
44985;SDS011;30721;49.380;7.736;2023-06-14T00:37:33;5.70;;;5.10;;
44985;SDS011;30721;49.380;7.736;2023-06-14T00:39:58;4.88;;;4.38;;
44985;SDS011;30721;49.380;7.736;2023-06-14T00:42:24;4.93;;;4.43;;
44985;SDS011;30721;49.380;7.736;2023-06-14T00:44:50;4.88;;;4.38;;
44985;SDS011;30721;49.380;7.736;2023-06-14T00:47:16;4.53;;;4.13;;
44985;SDS011;30721;49.380;7.736;2023-06-14T00:49:48;4.78;;;4.32;;
44985;SDS011;30721;49.380;7.736;2023-06-14T00:52:14;5.15;;;4.68;;
44985;SDS011;30721;49.380;7.736;2023-06-14T00:54:41;5.72;;;5.15;;
44985;SDS011;30721;49.380;7.736;2023-06-14T00:57:07;4.60;;;4.20;;
44985;SDS011;30721;49.380;7.736;2023-06-14T00:59:34;4.90;;;4.40;;
44985;SDS011;30721;49.380;7.736;2023-06-14T01:02:03;6.13;;;4.70;;
44985;SDS011;30721;49.380;7.736;2023-06-14T01:04:29;5.07;;;4.60;;
44985;SDS011;30721;49.380;7.736;2023-06-14T01:07:15;5.07;;;4.57;;
44985;SDS011;30721;49.380;7.736;2023-06-14T01:10:02;5.32;;;4.82;;
44985;SDS011;30721;49.380;7.736;2023-06-14T01:15:14;6.38;;;4.45;;
44985;SDS011;30721;49.380;7.736;2023-06-14T01:17:40;5.43;;;4.88;;
44985;SDS011;30721;49.380;7.736;2023-06-14T01:20:10;5.25;;;4.75;;
44985;SDS011;30721;49.380;7.736;2023-06-14T01:22:45;5.32;;;4.13;;
44985;SDS011;30721;49.380;7.736;2023-06-14T01:25:15;5.55;;;4.72;;
44985;SDS011;30721;49.380;7.736;2023-06-14T01:27:41;4.85;;;4.35;;
44985;SDS011;30721;49.380;7.736;2023-06-14T01:30:07;5.35;;;4.85;;
44985;SDS011;30721;49.380;7.736;2023-06-14T01:32:35;5.82;;;5.20;;
44985;SDS011;30721;49.380;7.736;2023-06-14T01:35:00;5.10;;;4.60;;
44985;SDS011;30721;49.380;7.736;2023-06-14T01:37:26;5.45;;;4.60;;
44985;SDS011;30721;49.380;7.736;2023-06-14T01:39:51;5.20;;;4.70;;
44985;SDS011;30721;49.380;7.736;2023-06-14T01:42:18;4.70;;;4.30;;
44985;SDS011;30721;49.380;7.736;2023-06-14T01:44:43;5.57;;;4.25;;
44985;SDS011;30721;49.380;7.736;2023-06-14T01:47:09;5.43;;;4.03;;
44985;SDS011;30721;49.380;7.736;2023-06-14T01:49:35;4.50;;;4.18;;
44985;SDS011;30721;49.380;7.736;2023-06-14T01:52:00;5.60;;;4.65;;
44985;SDS011;30721;49.380;7.736;2023-06-14T01:54:26;5.38;;;4.88;;
44985;SDS011;30721;49.380;7.736;2023-06-14T01:56:52;6.40;;;5.30;;
44985;SDS011;30721;49.380;7.736;2023-06-14T01:59:18;5.97;;;5.10;;
44985;SDS011;30721;49.380;7.736;2023-06-14T02:01:43;4.72;;;4.28;;
44985;SDS011;30721;49.380;7.736;2023-06-14T02:04:11;5.63;;;4.72;;
44985;SDS011;30721;49.380;7.736;2023-06-14T02:06:36;5.50;;;5.00;;
44985;SDS011;30721;49.380;7.736;2023-06-14T02:09:02;6.15;;;4.97;;
44985;SDS011;30721;49.380;7.736;2023-06-14T02:11:28;5.25;;;4.75;;
44985;SDS011;30721;49.380;7.736;2023-06-14T02:13:53;5.28;;;4.60;;
44985;SDS011;30721;49.380;7.736;2023-06-14T02:16:20;4.85;;;4.45;;
44985;SDS011;30721;49.380;7.736;2023-06-14T02:18:45;5.65;;;4.60;;
44985;SDS011;30721;49.380;7.736;2023-06-14T02:21:11;5.32;;;4.80;;
44985;SDS011;30721;49.380;7.736;2023-06-14T02:23:36;6.13;;;5.53;;
44985;SDS011;30721;49.380;7.736;2023-06-14T02:26:02;6.50;;;5.18;;
44985;SDS011;30721;49.380;7.736;2023-06-14T02:28:28;8.13;;;4.95;;
44985;SDS011;30721;49.380;7.736;2023-06-14T02:30:53;6.63;;;5.40;;
44985;SDS011;30721;49.380;7.736;2023-06-14T02:33:18;6.03;;;5.32;;
44985;SDS011;30721;49.380;7.736;2023-06-14T02:35:45;5.80;;;5.18;;
44985;SDS011;30721;49.380;7.736;2023-06-14T02:38:11;5.55;;;4.70;;
44985;SDS011;30721;49.380;7.736;2023-06-14T02:40:37;5.75;;;5.25;;
44985;SDS011;30721;49.380;7.736;2023-06-14T02:43:02;5.45;;;4.95;;
44985;SDS011;30721;49.380;7.736;2023-06-14T02:45:27;6.35;;;5.50;;
44985;SDS011;30721;49.380;7.736;2023-06-14T02:47:53;6.93;;;5.18;;
44985;SDS011;30721;49.380;7.736;2023-06-14T02:50:20;5.78;;;5.03;;
44985;SDS011;30721;49.380;7.736;2023-06-14T02:52:46;6.38;;;5.70;;
44985;SDS011;30721;49.380;7.736;2023-06-14T02:55:12;5.70;;;5.10;;
44985;SDS011;30721;49.380;7.736;2023-06-14T02:57:38;6.22;;;5.47;;
44985;SDS011;30721;49.380;7.736;2023-06-14T03:00:03;7.75;;;5.30;;
44985;SDS011;30721;49.380;7.736;2023-06-14T03:02:29;5.80;;;5.15;;
44985;SDS011;30721;49.380;7.736;2023-06-14T03:04:54;6.38;;;5.43;;
44985;SDS011;30721;49.380;7.736;2023-06-14T03:07:20;5.97;;;5.35;;
44985;SDS011;30721;49.380;7.736;2023-06-14T03:09:48;6.45;;;5.55;;
44985;SDS011;30721;49.380;7.736;2023-06-14T03:12:14;6.10;;;5.15;;
44985;SDS011;30721;49.380;7.736;2023-06-14T03:14:40;6.03;;;5.32;;
44985;SDS011;30721;49.380;7.736;2023-06-14T03:17:07;6.72;;;5.78;;
44985;SDS011;30721;49.380;7.736;2023-06-14T03:19:33;6.90;;;5.38;;
44985;SDS011;30721;49.380;7.736;2023-06-14T03:21:58;6.53;;;5.03;;
44985;SDS011;30721;49.380;7.736;2023-06-14T03:24:24;6.13;;;5.53;;
44985;SDS011;30721;49.380;7.736;2023-06-14T03:26:52;5.90;;;4.90;;
44985;SDS011;30721;49.380;7.736;2023-06-14T03:29:17;9.45;;;5.35;;
44985;SDS011;30721;49.380;7.736;2023-06-14T03:31:56;7.13;;;5.85;;
44985;SDS011;30721;49.380;7.736;2023-06-14T03:34:23;6.35;;;5.75;;
44985;SDS011;30721;49.380;7.736;2023-06-14T03:36:48;5.75;;;5.15;;
44985;SDS011;30721;49.380;7.736;2023-06-14T03:39:14;5.95;;;5.32;;
44985;SDS011;30721;49.380;7.736;2023-06-14T03:41:40;6.63;;;5.68;;
44985;SDS011;30721;49.380;7.736;2023-06-14T03:44:05;6.93;;;5.20;;
44985;SDS011;30721;49.380;7.736;2023-06-14T03:46:30;5.63;;;5.03;;
44985;SDS011;30721;49.380;7.736;2023-06-14T03:48:56;7.40;;;5.03;;
44985;SDS011;30721;49.380;7.736;2023-06-14T03:51:22;7.40;;;5.82;;
44985;SDS011;30721;49.380;7.736;2023-06-14T03:53:47;6.20;;;5.35;;
44985;SDS011;30721;49.380;7.736;2023-06-14T03:56:13;7.78;;;5.35;;
44985;SDS011;30721;49.380;7.736;2023-06-14T03:58:38;7.07;;;5.47;;
44985;SDS011;30721;49.380;7.736;2023-06-14T04:01:04;6.88;;;4.70;;
44985;SDS011;30721;49.380;7.736;2023-06-14T04:03:29;5.85;;;5.35;;
44985;SDS011;30721;49.380;7.736;2023-06-14T04:05:54;6.15;;;5.35;;
44985;SDS011;30721;49.380;7.736;2023-06-14T04:08:21;5.55;;;4.88;;
44985;SDS011;30721;49.380;7.736;2023-06-14T04:10:47;5.95;;;5.35;;
44985;SDS011;30721;49.380;7.736;2023-06-14T04:13:12;8.45;;;5.10;;
44985;SDS011;30721;49.380;7.736;2023-06-14T04:15:38;7.35;;;5.43;;
44985;SDS011;30721;49.380;7.736;2023-06-14T04:18:07;5.78;;;5.28;;
44985;SDS011;30721;49.380;7.736;2023-06-14T04:20:33;6.70;;;5.13;;
44985;SDS011;30721;49.380;7.736;2023-06-14T04:23:11;6.97;;;5.57;;
44985;SDS011;30721;49.380;7.736;2023-06-14T04:25:38;6.10;;;5.50;;
44985;SDS011;30721;49.380;7.736;2023-06-14T04:28:03;6.05;;;5.10;;
44985;SDS011;30721;49.380;7.736;2023-06-14T04:30:29;7.30;;;5.43;;
44985;SDS011;30721;49.380;7.736;2023-06-14T04:32:56;7.22;;;5.28;;
44985;SDS011;30721;49.380;7.736;2023-06-14T04:35:22;5.47;;;4.95;;
44985;SDS011;30721;49.380;7.736;2023-06-14T04:37:49;7.60;;;5.47;;
44985;SDS011;30721;49.380;7.736;2023-06-14T04:40:14;5.88;;;5.28;;
44985;SDS011;30721;49.380;7.736;2023-06-14T04:42:40;5.50;;;5.00;;
44985;SDS011;30721;49.380;7.736;2023-06-14T04:45:06;5.57;;;4.95;;
44985;SDS011;30721;49.380;7.736;2023-06-14T04:47:32;7.53;;;5.47;;
44985;SDS011;30721;49.380;7.736;2023-06-14T04:49:59;5.80;;;5.20;;
44985;SDS011;30721;49.380;7.736;2023-06-14T04:52:25;6.60;;;4.88;;
44985;SDS011;30721;49.380;7.736;2023-06-14T04:54:51;5.90;;;5.03;;
44985;SDS011;30721;49.380;7.736;2023-06-14T04:57:19;5.97;;;4.75;;
44985;SDS011;30721;49.380;7.736;2023-06-14T04:59:47;5.57;;;5.03;;
44985;SDS011;30721;49.380;7.736;2023-06-14T05:02:12;4.93;;;4.43;;
44985;SDS011;30721;49.380;7.736;2023-06-14T05:04:37;6.10;;;5.22;;
44985;SDS011;30721;49.380;7.736;2023-06-14T05:07:09;5.82;;;5.07;;
44985;SDS011;30721;49.380;7.736;2023-06-14T05:09:35;5.68;;;5.18;;
44985;SDS011;30721;49.380;7.736;2023-06-14T05:12:01;5.40;;;4.78;;
44985;SDS011;30721;49.380;7.736;2023-06-14T05:14:27;6.22;;;4.95;;
44985;SDS011;30721;49.380;7.736;2023-06-14T05:16:53;7.10;;;5.15;;
44985;SDS011;30721;49.380;7.736;2023-06-14T05:19:18;5.80;;;4.75;;
44985;SDS011;30721;49.380;7.736;2023-06-14T05:21:46;6.95;;;5.38;;
44985;SDS011;30721;49.380;7.736;2023-06-14T05:24:12;5.47;;;4.75;;
44985;SDS011;30721;49.380;7.736;2023-06-14T05:26:38;6.20;;;5.10;;
44985;SDS011;30721;49.380;7.736;2023-06-14T05:29:04;7.95;;;5.55;;
44985;SDS011;30721;49.380;7.736;2023-06-14T05:31:29;5.18;;;4.60;;
44985;SDS011;30721;49.380;7.736;2023-06-14T05:33:55;6.68;;;4.82;;
44985;SDS011;30721;49.380;7.736;2023-06-14T05:36:20;5.32;;;4.80;;
44985;SDS011;30721;49.380;7.736;2023-06-14T05:38:46;7.05;;;5.22;;
44985;SDS011;30721;49.380;7.736;2023-06-14T05:41:12;6.35;;;4.70;;
44985;SDS011;30721;49.380;7.736;2023-06-14T05:43:37;5.82;;;4.90;;
44985;SDS011;30721;49.380;7.736;2023-06-14T05:46:03;5.85;;;5.25;;
44985;SDS011;30721;49.380;7.736;2023-06-14T05:48:28;6.07;;;5.03;;
44985;SDS011;30721;49.380;7.736;2023-06-14T05:50:55;5.35;;;4.85;;
44985;SDS011;30721;49.380;7.736;2023-06-14T05:53:21;7.00;;;5.13;;
44985;SDS011;30721;49.380;7.736;2023-06-14T05:55:46;5.43;;;4.93;;
44985;SDS011;30721;49.380;7.736;2023-06-14T05:58:12;5.68;;;4.68;;
44985;SDS011;30721;49.380;7.736;2023-06-14T06:00:39;5.43;;;4.93;;
44985;SDS011;30721;49.380;7.736;2023-06-14T06:03:04;7.07;;;4.70;;
44985;SDS011;30721;49.380;7.736;2023-06-14T06:05:30;6.20;;;5.47;;
44985;SDS011;30721;49.380;7.736;2023-06-14T06:07:55;5.00;;;4.55;;
44985;SDS011;30721;49.380;7.736;2023-06-14T06:10:21;5.28;;;4.88;;
44985;SDS011;30721;49.380;7.736;2023-06-14T06:12:46;6.97;;;5.13;;
44985;SDS011;30721;49.380;7.736;2023-06-14T06:15:13;6.40;;;4.70;;
44985;SDS011;30721;49.380;7.736;2023-06-14T06:17:39;7.57;;;4.78;;
44985;SDS011;30721;49.380;7.736;2023-06-14T06:20:05;7.65;;;5.22;;
44985;SDS011;30721;49.380;7.736;2023-06-14T06:22:33;5.85;;;4.80;;
44985;SDS011;30721;49.380;7.736;2023-06-14T06:24:59;5.75;;;4.32;;
44985;SDS011;30721;49.380;7.736;2023-06-14T06:27:24;5.63;;;4.70;;
44985;SDS011;30721;49.380;7.736;2023-06-14T06:29:50;6.53;;;5.07;;
44985;SDS011;30721;49.380;7.736;2023-06-14T06:32:17;5.05;;;4.55;;
44985;SDS011;30721;49.380;7.736;2023-06-14T06:34:42;5.15;;;4.50;;
44985;SDS011;30721;49.380;7.736;2023-06-14T06:37:08;5.90;;;4.75;;
44985;SDS011;30721;49.380;7.736;2023-06-14T06:39:33;6.35;;;4.70;;
44985;SDS011;30721;49.380;7.736;2023-06-14T06:41:58;6.35;;;5.05;;
44985;SDS011;30721;49.380;7.736;2023-06-14T06:44:24;5.35;;;4.80;;
44985;SDS011;30721;49.380;7.736;2023-06-14T06:46:49;5.72;;;4.30;;
44985;SDS011;30721;49.380;7.736;2023-06-14T06:49:15;5.30;;;4.80;;
44985;SDS011;30721;49.380;7.736;2023-06-14T06:51:41;6.95;;;4.88;;
44985;SDS011;30721;49.380;7.736;2023-06-14T06:54:07;5.78;;;4.45;;
44985;SDS011;30721;49.380;7.736;2023-06-14T06:56:33;4.90;;;4.40;;
44985;SDS011;30721;49.380;7.736;2023-06-14T06:58:59;5.28;;;4.78;;
44985;SDS011;30721;49.380;7.736;2023-06-14T07:01:25;5.90;;;5.20;;
44985;SDS011;30721;49.380;7.736;2023-06-14T07:03:51;4.93;;;4.43;;
44985;SDS011;30721;49.380;7.736;2023-06-14T07:06:16;5.05;;;4.50;;
44985;SDS011;30721;49.380;7.736;2023-06-14T07:08:46;5.15;;;4.65;;
44985;SDS011;30721;49.380;7.736;2023-06-14T07:11:15;5.32;;;4.82;;
44985;SDS011;30721;49.380;7.736;2023-06-14T07:13:40;8.27;;;5.13;;
44985;SDS011;30721;49.380;7.736;2023-06-14T07:16:05;6.35;;;4.30;;
44985;SDS011;30721;49.380;7.736;2023-06-14T07:18:31;5.78;;;5.05;;
44985;SDS011;30721;49.380;7.736;2023-06-14T07:20:58;6.07;;;5.00;;
44985;SDS011;30721;49.380;7.736;2023-06-14T07:23:23;5.22;;;4.53;;
44985;SDS011;30721;49.380;7.736;2023-06-14T07:25:50;5.75;;;5.25;;
44985;SDS011;30721;49.380;7.736;2023-06-14T07:28:16;5.70;;;5.13;;
44985;SDS011;30721;49.380;7.736;2023-06-14T07:30:41;7.85;;;5.38;;
44985;SDS011;30721;49.380;7.736;2023-06-14T07:33:07;6.38;;;4.65;;
44985;SDS011;30721;49.380;7.736;2023-06-14T07:35:33;5.93;;;4.70;;
44985;SDS011;30721;49.380;7.736;2023-06-14T07:37:59;5.45;;;4.95;;
44985;SDS011;30721;49.380;7.736;2023-06-14T07:40:24;6.53;;;4.70;;
44985;SDS011;30721;49.380;7.736;2023-06-14T07:42:49;6.85;;;5.10;;
44985;SDS011;30721;49.380;7.736;2023-06-14T07:45:15;6.15;;;4.70;;
44985;SDS011;30721;49.380;7.736;2023-06-14T07:47:41;5.57;;;4.88;;
44985;SDS011;30721;49.380;7.736;2023-06-14T07:50:06;7.03;;;4.90;;
44985;SDS011;30721;49.380;7.736;2023-06-14T07:52:32;7.10;;;5.05;;
44985;SDS011;30721;49.380;7.736;2023-06-14T07:54:57;5.35;;;4.85;;
44985;SDS011;30721;49.380;7.736;2023-06-14T07:57:23;5.32;;;4.85;;
44985;SDS011;30721;49.380;7.736;2023-06-14T07:59:49;5.25;;;4.50;;
44985;SDS011;30721;49.380;7.736;2023-06-14T08:02:15;5.38;;;4.65;;
44985;SDS011;30721;49.380;7.736;2023-06-14T08:04:40;5.55;;;5.05;;
44985;SDS011;30721;49.380;7.736;2023-06-14T08:07:06;5.43;;;4.45;;
44985;SDS011;30721;49.380;7.736;2023-06-14T08:09:32;5.25;;;4.75;;
44985;SDS011;30721;49.380;7.736;2023-06-14T08:11:57;6.85;;;4.97;;
44985;SDS011;30721;49.380;7.736;2023-06-14T08:14:23;10.32;;;5.15;;
44985;SDS011;30721;49.380;7.736;2023-06-14T08:16:48;5.85;;;4.70;;
44985;SDS011;30721;49.380;7.736;2023-06-14T08:19:14;6.22;;;5.47;;
44985;SDS011;30721;49.380;7.736;2023-06-14T08:21:41;6.18;;;4.60;;
44985;SDS011;30721;49.380;7.736;2023-06-14T08:24:10;6.57;;;5.10;;
44985;SDS011;30721;49.380;7.736;2023-06-14T08:26:37;5.53;;;5.03;;
44985;SDS011;30721;49.380;7.736;2023-06-14T08:29:04;5.50;;;5.00;;
44985;SDS011;30721;49.380;7.736;2023-06-14T08:31:30;5.47;;;4.93;;
44985;SDS011;30721;49.380;7.736;2023-06-14T08:33:57;5.25;;;4.85;;
44985;SDS011;30721;49.380;7.736;2023-06-14T08:36:22;5.78;;;4.68;;
44985;SDS011;30721;49.380;7.736;2023-06-14T08:38:48;5.05;;;4.65;;
44985;SDS011;30721;49.380;7.736;2023-06-14T08:41:13;5.63;;;5.10;;
44985;SDS011;30721;49.380;7.736;2023-06-14T08:43:48;6.05;;;4.97;;
44985;SDS011;30721;49.380;7.736;2023-06-14T08:46:14;5.47;;;4.97;;
44985;SDS011;30721;49.380;7.736;2023-06-14T08:48:45;6.55;;;5.10;;
44985;SDS011;30721;49.380;7.736;2023-06-14T08:51:11;6.25;;;4.88;;
44985;SDS011;30721;49.380;7.736;2023-06-14T08:53:38;5.13;;;4.68;;
44985;SDS011;30721;49.380;7.736;2023-06-14T08:56:07;6.05;;;5.00;;
44985;SDS011;30721;49.380;7.736;2023-06-14T08:58:39;5.50;;;4.45;;
44985;SDS011;30721;49.380;7.736;2023-06-14T09:01:11;6.80;;;4.93;;
44985;SDS011;30721;49.380;7.736;2023-06-14T09:03:41;4.65;;;4.25;;
44985;SDS011;30721;49.380;7.736;2023-06-14T09:06:07;6.22;;;4.32;;
44985;SDS011;30721;49.380;7.736;2023-06-14T09:08:39;5.13;;;4.60;;
44985;SDS011;30721;49.380;7.736;2023-06-14T09:11:08;4.47;;;4.05;;
44985;SDS011;30721;49.380;7.736;2023-06-14T09:13:34;4.25;;;3.90;;
44985;SDS011;30721;49.380;7.736;2023-06-14T09:16:00;4.80;;;4.40;;
44985;SDS011;30721;49.380;7.736;2023-06-14T09:18:39;5.32;;;4.82;;
44985;SDS011;30721;49.380;7.736;2023-06-14T09:21:06;4.82;;;4.43;;
44985;SDS011;30721;49.380;7.736;2023-06-14T09:23:42;6.38;;;4.22;;
44985;SDS011;30721;49.380;7.736;2023-06-14T09:26:10;4.72;;;4.03;;
44985;SDS011;30721;49.380;7.736;2023-06-14T09:28:47;4.85;;;4.43;;
44985;SDS011;30721;49.380;7.736;2023-06-14T09:31:14;7.97;;;4.55;;
44985;SDS011;30721;49.380;7.736;2023-06-14T09:33:44;5.88;;;4.47;;
44985;SDS011;30721;49.380;7.736;2023-06-14T09:36:22;5.43;;;3.88;;
44985;SDS011;30721;49.380;7.736;2023-06-14T09:38:53;4.60;;;4.20;;
44985;SDS011;30721;49.380;7.736;2023-06-14T09:41:31;4.72;;;4.03;;
44985;SDS011;30721;49.380;7.736;2023-06-14T09:43:57;5.05;;;4.00;;
44985;SDS011;30721;49.380;7.736;2023-06-14T09:46:26;4.10;;;3.58;;
44985;SDS011;30721;49.380;7.736;2023-06-14T09:48:52;4.75;;;4.13;;
44985;SDS011;30721;49.380;7.736;2023-06-14T09:51:17;5.65;;;4.25;;
44985;SDS011;30721;49.380;7.736;2023-06-14T09:53:43;5.60;;;4.60;;
44985;SDS011;30721;49.380;7.736;2023-06-14T09:56:09;3.90;;;3.60;;
44985;SDS011;30721;49.380;7.736;2023-06-14T09:58:35;7.22;;;4.07;;
44985;SDS011;30721;49.380;7.736;2023-06-14T10:01:02;5.22;;;3.60;;
44985;SDS011;30721;49.380;7.736;2023-06-14T10:03:28;5.00;;;3.63;;
44985;SDS011;30721;49.380;7.736;2023-06-14T10:05:55;4.05;;;3.65;;
44985;SDS011;30721;49.380;7.736;2023-06-14T10:08:27;4.00;;;3.67;;
44985;SDS011;30721;49.380;7.736;2023-06-14T10:10:55;3.88;;;3.58;;
44985;SDS011;30721;49.380;7.736;2023-06-14T10:13:20;4.53;;;3.90;;
44985;SDS011;30721;49.380;7.736;2023-06-14T10:18:32;4.43;;;3.60;;
44985;SDS011;30721;49.380;7.736;2023-06-14T10:21:16;4.13;;;3.72;;
44985;SDS011;30721;49.380;7.736;2023-06-14T10:23:46;4.20;;;3.65;;
44985;SDS011;30721;49.380;7.736;2023-06-14T10:26:19;5.20;;;3.38;;
44985;SDS011;30721;49.380;7.736;2023-06-14T10:31:48;4.30;;;3.90;;
44985;SDS011;30721;49.380;7.736;2023-06-14T10:34:24;5.38;;;3.67;;
44985;SDS011;30721;49.380;7.736;2023-06-14T10:37:13;4.00;;;3.28;;
44985;SDS011;30721;49.380;7.736;2023-06-14T10:39:40;3.70;;;3.40;;
44985;SDS011;30721;49.380;7.736;2023-06-14T10:42:10;5.32;;;3.40;;
44985;SDS011;30721;49.380;7.736;2023-06-14T10:47:11;3.63;;;3.33;;
44985;SDS011;30721;49.380;7.736;2023-06-14T10:49:49;4.32;;;3.55;;
44985;SDS011;30721;49.380;7.736;2023-06-14T10:52:20;3.08;;;2.88;;
44985;SDS011;30721;49.380;7.736;2023-06-14T10:57:48;3.60;;;3.10;;
44985;SDS011;30721;49.380;7.736;2023-06-14T11:00:21;4.00;;;3.22;;
44985;SDS011;30721;49.380;7.736;2023-06-14T11:03:31;4.28;;;2.90;;
44985;SDS011;30721;49.380;7.736;2023-06-14T11:05:57;3.53;;;3.28;;
44985;SDS011;30721;49.380;7.736;2023-06-14T11:11:17;4.90;;;3.42;;
44985;SDS011;30721;49.380;7.736;2023-06-14T11:13:44;4.15;;;3.30;;
44985;SDS011;30721;49.380;7.736;2023-06-14T11:16:14;3.13;;;2.92;;
44985;SDS011;30721;49.380;7.736;2023-06-14T11:18:41;3.53;;;3.17;;
44985;SDS011;30721;49.380;7.736;2023-06-14T11:21:07;3.95;;;2.90;;
44985;SDS011;30721;49.380;7.736;2023-06-14T11:23:34;4.65;;;3.25;;
44985;SDS011;30721;49.380;7.736;2023-06-14T11:26:00;3.13;;;2.90;;
44985;SDS011;30721;49.380;7.736;2023-06-14T11:28:35;4.55;;;2.92;;
44985;SDS011;30721;49.380;7.736;2023-06-14T11:31:01;3.25;;;2.95;;
44985;SDS011;30721;49.380;7.736;2023-06-14T11:33:28;2.83;;;2.63;;
44985;SDS011;30721;49.380;7.736;2023-06-14T11:35:53;4.10;;;3.30;;
44985;SDS011;30721;49.380;7.736;2023-06-14T11:38:19;3.15;;;2.85;;
44985;SDS011;30721;49.380;7.736;2023-06-14T11:40:44;3.40;;;2.70;;
44985;SDS011;30721;49.380;7.736;2023-06-14T11:43:10;3.00;;;2.53;;
44985;SDS011;30721;49.380;7.736;2023-06-14T11:45:35;3.60;;;3.30;;
44985;SDS011;30721;49.380;7.736;2023-06-14T11:48:02;3.30;;;3.00;;
44985;SDS011;30721;49.380;7.736;2023-06-14T11:50:27;2.75;;;2.55;;
44985;SDS011;30721;49.380;7.736;2023-06-14T11:52:53;3.00;;;2.80;;
44985;SDS011;30721;49.380;7.736;2023-06-14T11:55:20;4.70;;;3.10;;
44985;SDS011;30721;49.380;7.736;2023-06-14T11:57:46;4.00;;;2.67;;
44985;SDS011;30721;49.380;7.736;2023-06-14T12:00:12;3.25;;;2.67;;
44985;SDS011;30721;49.380;7.736;2023-06-14T12:02:38;3.47;;;2.65;;
44985;SDS011;30721;49.380;7.736;2023-06-14T12:05:06;2.65;;;2.45;;
44985;SDS011;30721;49.380;7.736;2023-06-14T12:07:38;3.30;;;2.58;;
44985;SDS011;30721;49.380;7.736;2023-06-14T12:10:07;3.15;;;2.85;;
44985;SDS011;30721;49.380;7.736;2023-06-14T12:12:37;2.88;;;2.65;;
44985;SDS011;30721;49.380;7.736;2023-06-14T12:15:07;2.85;;;2.60;;
44985;SDS011;30721;49.380;7.736;2023-06-14T12:17:33;2.67;;;2.38;;
44985;SDS011;30721;49.380;7.736;2023-06-14T12:20:04;2.65;;;2.38;;
44985;SDS011;30721;49.380;7.736;2023-06-14T12:22:33;2.88;;;2.67;;
44985;SDS011;30721;49.380;7.736;2023-06-14T12:24:59;3.42;;;2.70;;
44985;SDS011;30721;49.380;7.736;2023-06-14T12:27:25;2.67;;;2.47;;
44985;SDS011;30721;49.380;7.736;2023-06-14T12:30:03;3.28;;;2.75;;
44985;SDS011;30721;49.380;7.736;2023-06-14T12:32:30;2.72;;;2.53;;
44985;SDS011;30721;49.380;7.736;2023-06-14T12:34:55;2.67;;;2.47;;
44985;SDS011;30721;49.380;7.736;2023-06-14T12:37:21;3.70;;;2.60;;
44985;SDS011;30721;49.380;7.736;2023-06-14T12:39:47;3.20;;;2.47;;
44985;SDS011;30721;49.380;7.736;2023-06-14T12:42:12;4.18;;;2.35;;
44985;SDS011;30721;49.380;7.736;2023-06-14T12:44:39;2.50;;;2.30;;
44985;SDS011;30721;49.380;7.736;2023-06-14T12:47:06;2.80;;;2.60;;
44985;SDS011;30721;49.380;7.736;2023-06-14T12:49:34;3.25;;;2.20;;
44985;SDS011;30721;49.380;7.736;2023-06-14T12:51:59;2.35;;;2.10;;
44985;SDS011;30721;49.380;7.736;2023-06-14T12:54:25;2.70;;;2.50;;
44985;SDS011;30721;49.380;7.736;2023-06-14T12:56:52;2.50;;;2.30;;
44985;SDS011;30721;49.380;7.736;2023-06-14T12:59:18;2.55;;;2.05;;
44985;SDS011;30721;49.380;7.736;2023-06-14T13:01:43;4.00;;;2.10;;
44985;SDS011;30721;49.380;7.736;2023-06-14T13:04:09;2.63;;;1.80;;
44985;SDS011;30721;49.380;7.736;2023-06-14T13:06:35;2.45;;;2.15;;
44985;SDS011;30721;49.380;7.736;2023-06-14T13:09:01;2.00;;;1.90;;
44985;SDS011;30721;49.380;7.736;2023-06-14T13:11:29;2.35;;;1.98;;
44985;SDS011;30721;49.380;7.736;2023-06-14T13:13:56;2.28;;;1.90;;
44985;SDS011;30721;49.380;7.736;2023-06-14T13:16:22;1.92;;;1.80;;
44985;SDS011;30721;49.380;7.736;2023-06-14T13:18:47;2.28;;;2.00;;
44985;SDS011;30721;49.380;7.736;2023-06-14T13:21:13;2.20;;;1.90;;
44985;SDS011;30721;49.380;7.736;2023-06-14T13:23:38;2.67;;;2.10;;
44985;SDS011;30721;49.380;7.736;2023-06-14T13:26:04;2.55;;;2.08;;
44985;SDS011;30721;49.380;7.736;2023-06-14T13:28:29;2.47;;;2.28;;
44985;SDS011;30721;49.380;7.736;2023-06-14T13:30:56;2.63;;;2.20;;
44985;SDS011;30721;49.380;7.736;2023-06-14T13:33:22;2.33;;;2.13;;
44985;SDS011;30721;49.380;7.736;2023-06-14T13:35:49;2.35;;;2.15;;
44985;SDS011;30721;49.380;7.736;2023-06-14T13:38:17;2.63;;;2.25;;
44985;SDS011;30721;49.380;7.736;2023-06-14T13:40:43;2.38;;;2.28;;
44985;SDS011;30721;49.380;7.736;2023-06-14T13:43:08;2.40;;;2.00;;
44985;SDS011;30721;49.380;7.736;2023-06-14T13:45:34;2.28;;;1.90;;
44985;SDS011;30721;49.380;7.736;2023-06-14T13:48:00;2.70;;;2.03;;
44985;SDS011;30721;49.380;7.736;2023-06-14T13:50:25;2.00;;;1.80;;
44985;SDS011;30721;49.380;7.736;2023-06-14T13:52:51;2.17;;;2.00;;
44985;SDS011;30721;49.380;7.736;2023-06-14T13:55:16;1.90;;;1.80;;
44985;SDS011;30721;49.380;7.736;2023-06-14T13:57:41;1.80;;;1.70;;
44985;SDS011;30721;49.380;7.736;2023-06-14T14:00:07;2.33;;;1.92;;
44985;SDS011;30721;49.380;7.736;2023-06-14T14:02:33;3.88;;;2.17;;
44985;SDS011;30721;49.380;7.736;2023-06-14T14:04:59;3.15;;;2.20;;
44985;SDS011;30721;49.380;7.736;2023-06-14T14:07:25;2.65;;;1.95;;
44985;SDS011;30721;49.380;7.736;2023-06-14T14:09:50;1.85;;;1.75;;
44985;SDS011;30721;49.380;7.736;2023-06-14T14:12:16;2.65;;;2.00;;
44985;SDS011;30721;49.380;7.736;2023-06-14T14:14:41;3.65;;;2.03;;
44985;SDS011;30721;49.380;7.736;2023-06-14T14:17:07;2.17;;;1.90;;
44985;SDS011;30721;49.380;7.736;2023-06-14T14:19:32;4.15;;;1.95;;
44985;SDS011;30721;49.380;7.736;2023-06-14T14:21:58;2.45;;;1.65;;
44985;SDS011;30721;49.380;7.736;2023-06-14T14:24:24;2.22;;;2.03;;
44985;SDS011;30721;49.380;7.736;2023-06-14T14:26:51;3.22;;;2.15;;
44985;SDS011;30721;49.380;7.736;2023-06-14T14:29:19;2.67;;;2.28;;
44985;SDS011;30721;49.380;7.736;2023-06-14T14:31:45;2.40;;;2.13;;
44985;SDS011;30721;49.380;7.736;2023-06-14T14:34:10;2.25;;;2.13;;
44985;SDS011;30721;49.380;7.736;2023-06-14T14:36:36;2.67;;;2.17;;
44985;SDS011;30721;49.380;7.736;2023-06-14T14:39:04;2.03;;;1.92;;
44985;SDS011;30721;49.380;7.736;2023-06-14T14:41:30;3.55;;;2.38;;
44985;SDS011;30721;49.380;7.736;2023-06-14T14:43:55;2.55;;;2.35;;
44985;SDS011;30721;49.380;7.736;2023-06-14T14:46:20;2.60;;;2.40;;
44985;SDS011;30721;49.380;7.736;2023-06-14T14:48:46;3.70;;;2.38;;
44985;SDS011;30721;49.380;7.736;2023-06-14T14:51:11;3.83;;;2.40;;
44985;SDS011;30721;49.380;7.736;2023-06-14T14:53:37;3.50;;;2.75;;
44985;SDS011;30721;49.380;7.736;2023-06-14T14:56:02;2.60;;;2.40;;
44985;SDS011;30721;49.380;7.736;2023-06-14T14:58:28;3.65;;;2.40;;
44985;SDS011;30721;49.380;7.736;2023-06-14T15:00:53;2.50;;;2.30;;
44985;SDS011;30721;49.380;7.736;2023-06-14T15:03:19;3.30;;;2.35;;